LAR weather

Laramie Regional Airport
Laramie, Wyoming, United States

Public forecast

Using degrees Fahrenheit for public forecast. Weather courtesy of forecast.io.

METAR (pilot weather report)

Retrieved 2019/07/24 00:53 UTC (31 minutes ago):

KLAR 240053Z AUTO 09012KT 10SM CLR 26/04 A3036 RMK AO2 SLP171 T02610039

TAF (pilot weather forecast)

Forecast is more than 12 hours old.

Retrieved 2019/07/23 00:39 UTC (1 day ago):

TAF KLAR 232336Z 2400/2424 10008KT P6SM FEW250 FM241800 29010KT P6SM SCT250 FM242000 25012KT P6SM VCTS SCT060CB BKN100